Time;durP1;ratioP1;P1;durP2;ratioP2;P2;SDS_P1;SDS_P2;PMS_P1;PMS_P2;Temp;Humidity;BMP_temperature;BMP_pressure;BME280_temperature;BME280_humidity;BME280_pressure;Samples;Min_cycle;Max_cycle;Signal;HPM_P1;HPM_P2
2022/04/30 00:02:06;;;;;;;8.20;7.50;;;;;;;12.86;61.94;95312.81;5017297;28;20649;-68
2022/04/30 00:04:34;;;;;;;9.25;8.38;;;;;;;12.81;61.89;95308.34;5033638;28;20206;-68
2022/04/30 00:07:04;;;;;;;9.00;8.20;;;;;;;12.79;61.84;95312.66;5017258;28;20252;-68
2022/04/30 00:09:31;;;;;;;8.63;7.72;;;;;;;12.73;62.25;95306.56;5034476;28;20197;-68
2022/04/30 00:11:58;;;;;;;9.05;8.15;;;;;;;12.73;62.70;95306.56;5034562;28;20210;-68
2022/04/30 00:14:25;;;;;;;9.55;8.15;;;;;;;12.72;62.47;95303.00;5034401;28;20194;-68
2022/04/30 00:16:54;;;;;;;9.77;8.85;;;;;;;12.71;62.45;95311.69;5016980;28;20639;-68
2022/04/30 00:19:22;;;;;;;8.50;7.80;;;;;;;12.70;62.47;95315.59;5016916;28;20206;-68
2022/04/30 00:21:51;;;;;;;9.18;8.35;;;;;;;12.69;62.38;95306.50;5033507;28;20199;-68
2022/04/30 00:24:19;;;;;;;9.57;8.65;;;;;;;12.68;61.87;95313.19;5016967;28;20194;-68
2022/04/30 00:26:47;;;;;;;9.05;8.25;;;;;;;12.67;62.08;95306.06;5016443;28;20238;-68
2022/04/30 00:29:14;;;;;;;8.57;7.68;;;;;;;12.64;61.94;95311.53;5033183;28;20593;-68
2022/04/30 00:31:41;;;;;;;8.43;7.63;;;;;;;12.55;62.25;95311.69;5033030;28;20198;-69
2022/04/30 00:34:08;;;;;;;8.70;7.90;;;;;;;12.50;62.67;95312.00;5033899;28;20190;-68
2022/04/30 00:36:35;;;;;;;8.32;7.53;;;;;;;12.48;62.17;95317.06;5033860;28;20190;-68
2022/04/30 00:39:02;;;;;;;8.40;7.70;;;;;;;12.43;62.14;95320.13;5016467;28;20209;-68
2022/04/30 00:41:32;;;;;;;8.77;7.88;;;;;;;12.39;61.87;95320.03;5032934;28;20195;-68
2022/04/30 00:44:00;;;;;;;8.35;7.55;;;;;;;12.38;62.34;95315.66;5016294;28;20305;-68
2022/04/30 00:46:27;;;;;;;8.75;7.93;;;;;;;12.42;62.25;95315.75;5032753;28;20198;-68
2022/04/30 00:48:57;;;;;;;8.55;7.85;;;;;;;12.41;62.25;95311.38;5033780;28;20210;-68
2022/04/30 00:51:24;;;;;;;7.82;7.13;;;;;;;12.41;62.51;95303.88;5016362;28;20202;-68
2022/04/30 00:53:52;;;;;;;8.70;7.90;;;;;;;12.37;62.37;95302.19;5016514;28;20190;-69
2022/04/30 00:56:24;;;;;;;9.35;8.45;;;;;;;12.32;62.44;95299.69;5033599;28;20213;-69
2022/04/30 00:58:56;;;;;;;8.40;7.60;;;;;;;12.32;62.55;95299.69;5034134;28;20197;-67
2022/04/30 01:01:24;;;;;;;8.73;7.68;;;;;;;12.28;62.29;95302.38;5037554;28;20203;-68
2022/04/30 01:03:51;;;;;;;8.35;7.50;;;;;;;12.28;62.26;95300.41;5038065;28;20328;-68
2022/04/30 01:06:21;;;;;;;8.55;7.75;;;;;;;12.28;62.72;95294.88;5038124;28;20189;-68
2022/04/30 01:08:48;;;;;;;8.88;7.97;;;;;;;12.27;62.40;95295.22;5020106;28;20646;-68
2022/04/30 01:11:16;;;;;;;8.88;7.97;;;;;;;12.26;62.64;95297.19;5037826;28;20191;-67
2022/04/30 01:13:45;;;;;;;8.50;7.65;;;;;;;12.23;62.55;95294.34;5020188;28;20402;-68
2022/04/30 01:16:15;;;;;;;8.57;7.78;;;;;;;12.17;62.60;95299.34;5037497;28;20183;-67
2022/04/30 01:18:41;;;;;;;9.50;8.60;;;;;;;12.11;62.37;95295.25;5020521;28;20198;-67
2022/04/30 01:21:12;;;;;;;9.68;7.95;;;;;;;12.12;62.78;95296.03;5036458;28;20202;-67
2022/04/30 01:23:41;;;;;;;8.40;7.60;;;;;;;12.12;63.19;95293.28;5037746;28;20191;-67
2022/04/30 01:26:09;;;;;;;11.32;8.65;;;;;;;12.09;62.82;95299.50;5036752;28;20205;-67
2022/04/30 01:28:38;;;;;;;9.02;8.13;;;;;;;12.06;63.38;95298.28;5037492;28;20242;-67
2022/04/30 01:37:22;;;;;;;8.90;8.00;;;;;;;12.05;63.62;95296.66;5037924;28;20196;-67
2022/04/30 01:39:30;;;;;;;9.07;8.07;;;;;;;11.91;64.36;95296.28;5002662;28;20249;-67
2022/04/30 01:42:04;;;;;;;8.38;7.55;;;;;;;11.81;64.77;95286.56;5020917;28;20194;-67
2022/04/30 01:44:31;;;;;;;8.93;8.10;;;;;;;11.83;64.81;95289.75;5020577;28;20209;-67
2022/04/30 01:47:00;;;;;;;9.02;8.13;;;;;;;11.85;64.89;95289.44;5037793;28;20178;-68
2022/04/30 01:49:28;;;;;;;9.27;8.38;;;;;;;11.80;65.16;95291.28;5036232;28;20214;-67
2022/04/30 01:51:58;;;;;;;9.02;8.10;;;;;;;11.76;65.13;95295.09;5037312;28;20198;-68
2022/04/30 01:54:24;;;;;;;9.57;8.65;;;;;;;11.76;64.95;95292.34;5037259;28;20193;-68
2022/04/30 01:56:53;;;;;;;9.93;8.93;;;;;;;11.77;64.93;95291.19;5020042;28;20190;-68
2022/04/30 01:59:21;;;;;;;10.00;8.77;;;;;;;11.78;64.78;95293.59;5037127;28;20198;-69
2022/04/30 02:01:48;;;;;;;10.77;8.93;;;;;;;11.75;65.11;95288.78;5020510;28;20198;-69
2022/04/30 02:04:15;;;;;;;9.30;8.38;;;;;;;11.64;65.20;95290.44;5038080;28;20191;-69
2022/04/30 02:06:41;;;;;;;9.52;8.63;;;;;;;11.60;65.35;95286.78;5022624;28;20213;-69
2022/04/30 02:09:09;;;;;;;9.43;8.30;;;;;;;11.54;65.56;95293.72;5038958;28;20206;-68
2022/04/30 02:11:37;;;;;;;9.43;8.52;;;;;;;11.55;65.82;95290.63;5037668;28;20202;-68
2022/04/30 02:14:05;;;;;;;9.45;8.55;;;;;;;11.57;65.49;95290.25;5036953;28;20206;-68
2022/04/30 02:16:33;;;;;;;8.63;7.82;;;;;;;11.56;65.58;95288.66;5037986;28;20198;-69
2022/04/30 02:19:01;;;;;;;9.23;8.32;;;;;;;11.56;65.49;95294.19;5021177;28;20564;-69
2022/04/30 02:21:29;;;;;;;9.63;8.25;;;;;;;11.50;65.79;95290.88;5020225;28;20206;-68
2022/04/30 02:23:58;;;;;;;9.20;8.30;;;;;;;11.47;66.27;95288.81;5037268;28;20198;-68
2022/04/30 02:26:27;;;;;;;9.25;8.25;;;;;;;11.45;66.13;95284.81;5019816;28;20213;-68
2022/04/30 02:28:56;;;;;;;9.95;8.32;;;;;;;11.44;66.17;95277.69;5035465;28;20275;-68
2022/04/30 02:31:25;;;;;;;10.23;7.97;;;;;;;11.37;66.42;95291.31;5036367;28;20190;-68
2022/04/30 02:33:55;;;;;;;9.98;7.70;;;;;;;11.32;66.52;95281.28;5037241;28;20186;-68
2022/04/30 02:36:26;;;;;;;9.43;7.90;;;;;;;11.21;66.19;95289.28;5036142;28;20194;-69
2022/04/30 02:38:55;;;;;;;9.07;8.27;;;;;;;11.14;66.54;95288.28;5036337;28;20246;-69
2022/04/30 02:41:22;;;;;;;9.15;8.25;;;;;;;11.07;67.13;95286.13;5036026;28;20190;-68
2022/04/30 02:43:50;;;;;;;9.50;8.48;;;;;;;11.04;67.04;95287.63;5019520;28;20198;-70
2022/04/30 02:46:17;;;;;;;9.93;8.43;;;;;;;11.06;66.73;95276.25;5019344;28;20202;-68
2022/04/30 02:48:45;;;;;;;9.15;8.18;;;;;;;11.02;66.71;95276.13;5036032;28;20677;-68
2022/04/30 02:51:15;;;;;;;9.23;8.30;;;;;;;10.98;67.03;95279.94;5018694;28;20222;-68
2022/04/30 02:53:42;;;;;;;11.13;8.25;;;;;;;10.96;66.99;95277.53;5035108;28;20207;-68
2022/04/30 02:56:11;;;;;;;9.82;8.02;;;;;;;10.97;66.97;95275.59;5034802;28;20198;-68
2022/04/30 03:01:22;;;;;;;9.40;8.02;;;;;;;11.00;66.85;95280.38;5036086;28;20600;-68
2022/04/30 03:03:51;;;;;;;11.50;8.45;;;;;;;10.98;66.78;95275.22;5018854;28;20194;-68
2022/04/30 03:06:19;;;;;;;8.88;8.02;;;;;;;10.96;67.11;95280.28;5036010;28;20186;-68
2022/04/30 03:08:47;;;;;;;9.55;8.60;;;;;;;10.95;67.28;95272.38;5035710;28;20233;-68
2022/04/30 03:11:19;;;;;;;9.32;7.68;;;;;;;10.89;67.51;95268.25;5018224;28;20237;-68
2022/04/30 03:13:47;;;;;;;11.68;7.88;;;;;;;10.83;67.49;95268.50;5035815;28;20214;-68
2022/04/30 03:21:46;;;;;;;9.63;8.73;;;;;;;10.78;67.64;95270.69;5034626;28;20244;-68
2022/04/30 03:24:15;;;;;;;8.75;7.95;;;;;;;10.79;67.71;95286.09;5035360;28;20186;-68
2022/04/30 03:26:43;;;;;;;9.45;8.52;;;;;;;10.81;67.54;95273.56;5018072;28;20198;-68
2022/04/30 03:29:10;;;;;;;12.15;9.55;;;;;;;10.81;67.84;95275.50;5017949;28;20215;-68
2022/04/30 03:31:39;;;;;;;11.95;9.00;;;;;;;10.76;67.53;95281.28;5035576;28;20199;-68
2022/04/30 03:34:09;;;;;;;10.00;8.48;;;;;;;10.72;67.73;95283.94;5034618;28;20216;-68
2022/04/30 03:36:37;;;;;;;10.27;9.23;;;;;;;10.71;67.62;95290.63;5035303;28;20179;-68
2022/04/30 03:39:04;;;;;;;9.18;8.23;;;;;;;10.72;67.73;95289.44;5034668;28;20198;-68
2022/04/30 03:41:31;;;;;;;10.23;9.13;;;;;;;10.72;67.38;95292.22;5034824;28;20195;-68
2022/04/30 03:43:57;;;;;;;12.98;9.05;;;;;;;10.67;67.89;95289.69;5035499;28;20182;-68
2022/04/30 03:46:24;;;;;;;9.77;8.77;;;;;;;10.58;67.92;95294.53;5017691;28;20206;-68
2022/04/30 03:48:53;;;;;;;9.13;8.23;;;;;;;10.50;67.75;95295.47;5035406;28;20640;-68
2022/04/30 03:51:22;;;;;;;9.85;8.82;;;;;;;10.43;67.86;95298.00;5033945;28;20214;-68
2022/04/30 03:53:49;;;;;;;10.30;8.80;;;;;;;10.46;68.15;95292.59;5017566;28;20559;-68
2022/04/30 03:56:21;;;;;;;9.68;8.68;;;;;;;10.44;67.90;95300.41;5034486;28;20245;-68
2022/04/30 03:58:50;;;;;;;11.50;8.90;;;;;;;10.34;68.12;95292.59;5034883;28;20194;-68
2022/04/30 04:01:18;;;;;;;13.23;9.25;;;;;;;10.31;68.61;95298.81;5034319;28;20209;-67
2022/04/30 04:03:45;;;;;;;10.25;9.25;;;;;;;10.34;68.19;95298.91;5017491;28;20642;-71
2022/04/30 04:06:15;;;;;;;9.95;8.57;;;;;;;10.40;68.72;95295.94;5033871;28;20199;-69
2022/04/30 04:08:43;;;;;;;11.80;9.20;;;;;;;10.36;68.65;95298.59;5034471;28;20202;-68
2022/04/30 04:11:13;;;;;;;10.43;8.60;;;;;;;10.38;68.96;95298.22;5034965;28;20591;-69
2022/04/30 04:19:09;;;;;;;10.93;9.77;;;;;;;10.40;69.15;95299.50;5017497;28;20206;-70
2022/04/30 04:21:36;;;;;;;12.15;10.93;;;;;;;10.41;68.97;95303.84;5017222;28;20531;-70
2022/04/30 04:26:49;;;;;;;11.57;10.40;;;;;;;10.55;68.82;95309.00;5017004;28;20245;-70
2022/04/30 04:29:17;;;;;;;10.65;9.55;;;;;;;10.56;69.60;95311.41;5017057;28;20557;-69
2022/04/30 04:31:43;;;;;;;11.40;10.20;;;;;;;10.59;69.11;95313.47;5017104;28;20241;-69
2022/04/30 04:34:13;;;;;;;12.95;11.10;;;;;;;10.59;68.43;95305.22;5015926;28;20256;-70
2022/04/30 04:36:40;;;;;;;12.27;10.95;;;;;;;10.60;68.38;95306.84;5033151;28;20630;-69
2022/04/30 04:39:10;;;;;;;14.18;11.10;;;;;;;10.67;68.48;95299.91;5033593;28;20209;-70
2022/04/30 04:41:37;;;;;;;12.45;11.15;;;;;;;10.64;68.95;95301.44;5016845;28;20293;-70
2022/04/30 04:44:04;;;;;;;13.68;11.13;;;;;;;10.61;69.24;95302.13;5017578;28;20293;-73
2022/04/30 04:46:31;;;;;;;14.15;10.45;;;;;;;10.65;69.43;95314.06;5017322;28;20277;-68
2022/04/30 04:48:58;;;;;;;13.48;11.00;;;;;;;10.71;69.48;95300.81;5016551;28;20226;-67
2022/04/30 04:51:25;;;;;;;11.18;10.05;;;;;;;10.75;69.82;95304.50;5016527;28;20313;-67
2022/04/30 04:53:52;;;;;;;12.20;10.07;;;;;;;10.78;69.42;95312.91;5016203;28;20198;-69
2022/04/30 04:56:20;;;;;;;12.77;11.43;;;;;;;10.76;69.25;95314.38;5032866;28;20198;-67
2022/04/30 04:58:47;;;;;;;11.98;10.43;;;;;;;10.84;69.49;95316.19;5016641;28;20510;-67
2022/04/30 05:01:16;;;;;;;11.10;10.00;;;;;;;10.90;69.05;95314.81;5032999;28;20191;-68
2022/04/30 05:03:43;;;;;;;11.43;10.32;;;;;;;10.96;69.56;95318.13;5032788;28;20301;-67
2022/04/30 05:06:10;;;;;;;11.45;10.25;;;;;;;10.99;69.79;95318.22;5032787;28;20705;-70
2022/04/30 05:08:37;;;;;;;13.10;11.05;;;;;;;11.05;69.42;95321.56;5032728;28;20209;-70
2022/04/30 05:11:04;;;;;;;12.38;11.07;;;;;;;11.10;69.43;95326.81;5004006;28;20219;-70
2022/04/30 05:13:32;;;;;;;17.20;12.27;;;;;;;11.08;69.37;95315.34;4996386;28;20195;-71
2022/04/30 05:15:59;;;;;;;14.43;12.93;;;;;;;11.10;69.72;95321.31;4996756;28;20290;-69
2022/04/30 05:18:26;;;;;;;12.70;11.45;;;;;;;11.17;69.55;95324.28;5001128;28;20201;-69
2022/04/30 05:20:54;;;;;;;11.10;10.07;;;;;;;11.20;69.12;95326.34;5017132;28;20616;-69
2022/04/30 05:23:24;;;;;;;11.75;10.65;;;;;;;11.25;69.16;95323.31;5014134;28;20199;-69
2022/04/30 05:25:52;;;;;;;14.52;12.80;;;;;;;11.34;68.42;95320.41;4996576;28;20285;-68
2022/04/30 05:28:19;;;;;;;14.75;13.25;;;;;;;11.42;68.40;95322.22;5014266;28;20223;-68
2022/04/30 05:30:49;;;;;;;14.15;12.75;;;;;;;11.49;68.23;95325.19;5014168;28;20237;-68
2022/04/30 05:33:16;;;;;;;15.32;13.73;;;;;;;11.51;68.22;95319.28;5026362;28;20204;-69
2022/04/30 05:35:44;;;;;;;15.00;13.40;;;;;;;11.56;68.00;95319.84;5013412;28;20635;-68
2022/04/30 05:38:14;;;;;;;15.68;14.02;;;;;;;11.64;68.00;95322.81;4997548;28;20285;-68
2022/04/30 05:40:41;;;;;;;18.40;16.23;;;;;;;11.66;68.02;95326.84;5014486;28;20191;-68
2022/04/30 05:43:08;;;;;;;20.02;17.98;;;;;;;11.74;67.57;95322.31;5014932;28;20192;-69
2022/04/30 05:45:35;;;;;;;20.42;18.40;;;;;;;11.79;67.70;95324.78;5015037;28;20282;-68
2022/04/30 05:48:04;;;;;;;19.50;17.50;;;;;;;11.85;68.12;95337.22;4999910;28;20207;-68
2022/04/30 05:50:31;;;;;;;19.88;17.20;;;;;;;11.93;67.71;95335.44;5000174;28;20219;-69
2022/04/30 05:52:59;;;;;;;18.52;16.73;;;;;;;11.98;67.17;95333.25;5017400;28;20187;-69
2022/04/30 05:55:26;;;;;;;16.52;14.85;;;;;;;12.04;67.11;95329.03;5000122;28;20214;-69
2022/04/30 05:57:52;;;;;;;17.45;15.75;;;;;;;12.07;66.66;95337.78;5017771;28;20179;-68
2022/04/30 06:00:20;;;;;;;16.77;15.07;;;;;;;12.13;66.74;95337.16;5000762;28;20253;-69
2022/04/30 06:02:47;;;;;;;16.27;14.13;;;;;;;12.19;66.63;95330.19;5017228;28;20206;-68
2022/04/30 06:05:16;;;;;;;16.02;14.40;;;;;;;12.27;66.09;95331.16;4999243;28;20573;-68
2022/04/30 06:07:43;;;;;;;17.38;15.57;;;;;;;12.32;65.77;95330.91;5016504;28;20608;-68
2022/04/30 06:10:10;;;;;;;15.65;13.52;;;;;;;12.37;65.69;95327.88;4999539;28;20219;-70
2022/04/30 06:12:37;;;;;;;13.75;12.35;;;;;;;12.34;64.93;95331.34;4999823;28;20218;-70
2022/04/30 06:15:07;;;;;;;13.27;11.98;;;;;;;12.32;65.13;95336.44;5016629;28;20681;-69
2022/04/30 06:17:34;;;;;;;14.75;13.20;;;;;;;12.32;65.50;95330.91;5016919;28;20191;-68
2022/04/30 06:20:01;;;;;;;13.60;12.27;;;;;;;12.33;64.73;95328.97;4999684;28;20199;-69
2022/04/30 06:22:29;;;;;;;14.63;13.02;;;;;;;12.37;65.40;95325.09;4999876;28;20214;-69
2022/04/30 06:24:57;;;;;;;13.25;11.90;;;;;;;12.41;65.00;95314.94;5017123;28;20191;-69
2022/04/30 06:27:25;;;;;;;13.55;12.15;;;;;;;12.46;64.98;95331.28;5022277;28;20340;-69
2022/04/30 06:29:51;;;;;;;14.00;12.13;;;;;;;12.53;64.78;95323.13;5019067;28;20210;-69
2022/04/30 06:32:20;;;;;;;12.30;10.25;;;;;;;12.65;64.99;95324.19;5036507;28;20186;-69
2022/04/30 06:34:47;;;;;;;11.35;10.25;;;;;;;12.66;63.28;95329.34;5002731;28;20202;-69
2022/04/30 06:37:15;;;;;;;12.05;10.50;;;;;;;12.71;63.14;95322.75;5019345;28;20205;-69
2022/04/30 06:39:43;;;;;;;12.82;10.80;;;;;;;12.77;63.25;95319.31;5036477;28;20190;-68
2022/04/30 06:42:11;;;;;;;11.35;10.30;;;;;;;12.83;63.71;95319.88;5036287;28;20570;-68
2022/04/30 06:44:38;;;;;;;11.32;10.27;;;;;;;12.91;63.13;95315.28;5018721;28;20294;-69
2022/04/30 06:47:05;;;;;;;10.90;9.50;;;;;;;12.96;61.98;95309.44;5018951;28;20206;-68
2022/04/30 06:49:32;;;;;;;11.15;10.00;;;;;;;12.94;61.95;95320.09;5028376;28;20242;-68
2022/04/30 06:52:00;;;;;;;13.32;10.80;;;;;;;12.99;62.50;95319.81;5036441;28;20187;-69
2022/04/30 06:57:17;;;;;;;12.25;10.52;;;;;;;13.05;62.39;95323.09;5035477;28;20174;-69
2022/04/30 06:59:45;;;;;;;11.10;10.07;;;;;;;13.07;62.40;95316.06;5035896;28;20277;-68
2022/04/30 07:02:17;;;;;;;12.27;10.98;;;;;;;13.09;61.96;95305.41;5018865;28;20195;-69
2022/04/30 07:04:46;;;;;;;10.60;9.57;;;;;;;13.12;62.62;95314.94;5036473;28;20191;-69
2022/04/30 07:07:15;;;;;;;10.63;9.63;;;;;;;13.11;61.66;95310.56;5035570;28;20194;-68
2022/04/30 07:09:42;;;;;;;11.45;10.35;;;;;;;13.09;62.35;95310.94;5034604;28;20218;-68
2022/04/30 07:12:13;;;;;;;12.73;10.75;;;;;;;13.09;61.35;95307.38;5035572;28;20183;-70
2022/04/30 07:14:44;;;;;;;11.45;10.27;;;;;;;13.15;62.65;95308.69;5018017;28;20293;-68
2022/04/30 07:17:13;;;;;;;12.35;10.02;;;;;;;13.26;60.92;95306.97;5035212;28;20202;-68
2022/04/30 07:19:40;;;;;;;10.25;9.25;;;;;;;13.32;60.75;95308.25;5017793;28;20198;-68
2022/04/30 07:22:08;;;;;;;11.85;10.65;;;;;;;13.39;60.84;95310.38;5035376;28;20256;-69
2022/04/30 07:24:35;;;;;;;11.95;10.75;;;;;;;13.35;60.43;95313.09;5018097;28;20191;-67
2022/04/30 07:27:04;;;;;;;12.25;11.05;;;;;;;13.39;60.73;95304.84;5036985;28;20533;-70
2022/04/30 07:29:31;;;;;;;10.30;9.20;;;;;;;13.48;60.17;95309.00;5018654;28;20226;-70
2022/04/30 07:32:00;;;;;;;9.23;8.30;;;;;;;13.60;57.89;95310.00;5017736;28;20621;-69
2022/04/30 07:34:28;;;;;;;9.07;8.27;;;;;;;13.69;57.68;95302.28;5033924;28;20195;-69
2022/04/30 07:36:55;;;;;;;10.25;8.65;;;;;;;13.76;57.52;95307.13;5035439;28;20182;-69
2022/04/30 07:39:22;;;;;;;9.82;8.82;;;;;;;13.79;58.56;95303.63;5034448;28;20203;-68
2022/04/30 07:41:49;;;;;;;8.93;8.02;;;;;;;13.92;58.20;95305.88;5018210;28;20212;-70
2022/04/30 07:44:16;;;;;;;9.32;7.88;;;;;;;14.02;57.68;95296.16;5035008;28;20473;-69
2022/04/30 07:46:43;;;;;;;11.15;9.95;;;;;;;14.10;58.45;95300.63;5018677;28;20450;-70
2022/04/30 07:49:12;;;;;;;9.60;8.60;;;;;;;14.11;56.95;95291.13;5035665;28;20198;-71
2022/04/30 07:51:52;;;;;;;10.68;8.55;;;;;;;14.18;57.42;95296.81;5034885;28;20221;-71
2022/04/30 07:54:20;;;;;;;9.32;8.43;;;;;;;14.33;58.56;95297.03;5035352;28;20218;-70
2022/04/30 07:56:47;;;;;;;9.77;8.75;;;;;;;14.42;58.29;95295.63;5033922;28;20202;-71
2022/04/30 07:59:15;;;;;;;8.52;7.72;;;;;;;14.51;55.59;95286.25;5035309;28;20242;-71
2022/04/30 08:01:42;;;;;;;11.05;9.23;;;;;;;14.58;57.12;95289.16;5034500;28;20187;-71
2022/04/30 08:04:08;;;;;;;11.07;8.63;;;;;;;14.63;56.66;95288.81;5018627;28;20222;-71
2022/04/30 08:06:37;;;;;;;10.38;8.50;;;;;;;14.69;55.29;95290.09;5018987;28;20286;-71
2022/04/30 08:09:04;;;;;;;8.00;6.50;;;;;;;14.72;55.71;95289.38;5018888;28;20233;-71
2022/04/30 08:11:31;;;;;;;8.07;7.25;;;;;;;14.86;55.62;95286.00;5020758;28;20237;-72
2022/04/30 08:13:58;;;;;;;9.32;8.35;;;;;;;14.91;54.44;95283.69;5020310;28;20206;-72
2022/04/30 08:16:27;;;;;;;8.93;8.05;;;;;;;14.74;53.23;95284.22;5018060;28;20195;-68
2022/04/30 08:18:58;;;;;;;8.48;7.63;;;;;;;14.77;54.04;95288.22;5017365;28;20202;-68
2022/04/30 08:21:25;;;;;;;8.48;7.68;;;;;;;14.81;53.50;95281.56;5017298;28;20293;-68
2022/04/30 08:23:53;;;;;;;9.18;8.32;;;;;;;14.88;52.75;95283.63;5017223;28;20293;-68
2022/04/30 08:26:21;;;;;;;9.43;8.02;;;;;;;14.88;54.21;95280.84;5017423;28;20202;-68
2022/04/30 08:28:50;;;;;;;9.13;8.00;;;;;;;14.84;53.90;95274.47;5030049;28;20241;-68
2022/04/30 08:31:18;;;;;;;8.93;8.07;;;;;;;14.80;53.67;95281.94;5013908;28;20222;-68
2022/04/30 08:33:44;;;;;;;9.27;8.30;;;;;;;14.73;54.66;95279.84;5014792;28;20191;-68
2022/04/30 08:36:11;;;;;;;9.45;7.40;;;;;;;14.82;55.43;95277.63;4997035;28;20294;-68
2022/04/30 08:38:38;;;;;;;8.90;8.00;;;;;;;14.99;56.25;95281.00;4996993;28;20203;-68
2022/04/30 08:41:09;;;;;;;9.10;8.30;;;;;;;15.03;54.46;95281.84;4997243;28;20294;-69
2022/04/30 08:43:40;;;;;;;7.75;6.97;;;;;;;14.86;54.55;95275.69;5015188;28;20269;-67
2022/04/30 08:46:06;;;;;;;7.88;6.70;;;;;;;14.66;55.38;95274.19;4997505;28;20276;-70
2022/04/30 08:48:34;;;;;;;8.10;7.32;;;;;;;14.74;56.52;95277.88;4996818;28;20207;-70
2022/04/30 08:51:02;;;;;;;7.90;7.20;;;;;;;14.75;56.18;95273.94;5013851;28;20211;-70
2022/04/30 08:53:30;;;;;;;8.48;7.65;;;;;;;14.78;55.82;95271.22;4996375;28;20199;-70
2022/04/30 08:55:58;;;;;;;9.82;7.90;;;;;;;15.01;56.81;95262.78;5013744;28;20179;-70
2022/04/30 08:58:26;;;;;;;8.00;7.20;;;;;;;15.27;55.88;95264.72;5013851;28;20199;-70
2022/04/30 09:00:53;;;;;;;8.68;7.75;;;;;;;15.49;56.90;95271.31;4996849;28;20195;-70
2022/04/30 09:03:22;;;;;;;8.63;7.72;;;;;;;15.62;55.84;95264.31;5014721;28;20206;-70
2022/04/30 09:05:49;;;;;;;8.57;7.70;;;;;;;15.70;54.38;95267.22;5014641;28;20293;-70
2022/04/30 09:08:17;;;;;;;9.00;7.95;;;;;;;15.49;53.81;95259.41;4996637;28;20261;-70
2022/04/30 09:10:44;;;;;;;8.40;7.60;;;;;;;15.60;55.63;95266.69;5029046;28;20615;-70
2022/04/30 09:13:13;;;;;;;8.38;6.75;;;;;;;15.64;56.06;95261.94;4996581;28;20203;-67
2022/04/30 09:15:44;;;;;;;7.25;6.55;;;;;;;15.50;53.53;95259.00;4996638;28;20210;-67
2022/04/30 09:18:14;;;;;;;7.45;6.78;;;;;;;15.46;54.51;95257.38;5029427;28;20210;-67
2022/04/30 09:20:46;;;;;;;6.93;6.25;;;;;;;15.36;53.41;95254.13;4997523;28;20244;-67
2022/04/30 09:23:25;;;;;;;7.20;6.50;;;;;;;15.58;54.74;95254.34;5000723;28;20203;-68
2022/04/30 09:25:55;;;;;;;7.13;6.53;;;;;;;15.80;54.47;95252.63;5000550;28;20265;-68
2022/04/30 09:28:26;;;;;;;7.47;6.78;;;;;;;15.98;53.32;95252.81;5012670;28;20701;-68
2022/04/30 09:31:14;;;;;;;8.38;6.47;;;;;;;16.19;52.98;95250.19;5037197;28;20429;-68
2022/04/30 09:33:54;;;;;;;8.07;6.40;;;;;;;16.20;52.88;95242.66;5018672;28;20213;-68
2022/04/30 09:39:14;;;;;;;8.68;7.88;;;;;;;16.54;53.57;95237.75;5019847;28;20195;-67
2022/04/30 09:41:41;;;;;;;6.68;6.07;;;;;;;16.68;52.11;95232.25;5019924;28;20626;-69
2022/04/30 09:44:09;;;;;;;7.72;6.95;;;;;;;16.79;51.80;95232.34;5037091;28;20182;-68
2022/04/30 09:46:39;;;;;;;7.88;5.70;;;;;;;16.82;49.74;95239.94;5037275;28;20201;-68
2022/04/30 09:54:36;;;;;;;5.18;4.78;;;;;;;16.80;49.87;95226.38;5019594;28;20201;-67
2022/04/30 09:57:07;;;;;;;6.63;5.10;;;;;;;16.93;49.06;95234.44;5036993;28;20225;-68
2022/04/30 09:59:36;;;;;;;5.43;4.72;;;;;;;16.86;49.31;95229.63;5019494;28;20696;-67
2022/04/30 10:02:08;;;;;;;5.03;4.53;;;;;;;16.82;48.00;95231.59;5036859;28;20186;-68
2022/04/30 10:04:36;;;;;;;4.45;4.15;;;;;;;16.94;49.04;95224.88;5019203;28;20198;-67
2022/04/30 10:07:04;;;;;;;4.57;4.18;;;;;;;16.95;46.79;95226.47;5036738;28;20186;-67
2022/04/30 10:09:33;;;;;;;5.60;4.22;;;;;;;16.91;48.10;95220.88;5036708;28;20196;-67
2022/04/30 10:12:06;;;;;;;4.25;3.85;;;;;;;17.07;47.88;95215.78;5036588;28;20217;-67
2022/04/30 10:14:44;;;;;;;4.32;3.92;;;;;;;17.35;47.84;95205.94;5036408;28;20187;-67
2022/04/30 10:17:18;;;;;;;4.68;4.28;;;;;;;17.40;46.11;95213.94;5018991;28;20192;-68
2022/04/30 10:19:56;;;;;;;5.57;4.32;;;;;;;17.40;46.76;95204.78;5019084;28;20245;-67
2022/04/30 10:22:23;;;;;;;4.15;3.85;;;;;;;17.50;48.08;95204.81;5036052;28;20175;-67
2022/04/30 10:24:51;;;;;;;4.47;4.07;;;;;;;17.62;45.71;95191.69;5036396;28;20178;-68
2022/04/30 10:27:18;;;;;;;6.03;4.53;;;;;;;17.82;47.04;95192.13;5035861;28;20234;-68
2022/04/30 10:29:56;;;;;;;4.20;3.90;;;;;;;18.02;47.07;95191.34;5036170;28;20194;-68
2022/04/30 10:32:34;;;;;;;4.65;3.85;;;;;;;18.33;46.70;95190.94;5017167;28;20249;-68
2022/04/30 10:35:02;;;;;;;5.72;4.13;;;;;;;18.28;44.22;95183.78;5019297;28;20522;-72
2022/04/30 10:37:30;;;;;;;4.15;3.75;;;;;;;18.15;42.63;95191.75;5020124;28;20288;-68
2022/04/30 10:39:59;;;;;;;4.80;3.80;;;;;;;17.64;42.95;95187.28;5036307;28;20174;-68
2022/04/30 10:42:33;;;;;;;4.28;3.88;;;;;;;17.98;45.49;95179.41;5035503;28;20201;-68
2022/04/30 10:45:00;;;;;;;4.78;4.13;;;;;;;18.22;43.93;95180.56;5035482;28;20503;-68
2022/04/30 10:47:28;;;;;;;5.07;4.63;;;;;;;18.27;45.13;95173.81;5036183;28;20214;-68
2022/04/30 10:50:00;;;;;;;4.50;4.10;;;;;;;18.21;42.97;95183.78;5036081;28;20187;-69
2022/04/30 10:52:28;;;;;;;4.55;4.20;;;;;;;17.78;43.65;95175.38;5036211;28;20206;-68
2022/04/30 10:54:56;;;;;;;5.85;4.53;;;;;;;18.09;47.23;95178.59;5036044;28;20175;-68
2022/04/30 10:57:23;;;;;;;4.45;4.13;;;;;;;18.32;43.71;95181.78;5035665;28;20533;-69
2022/04/30 11:00:01;;;;;;;5.05;4.55;;;;;;;18.40;46.12;95174.97;5036283;28;20190;-69
2022/04/30 11:02:32;;;;;;;5.93;4.15;;;;;;;18.18;43.80;95190.94;5036403;28;20221;-68
2022/04/30 11:05:00;;;;;;;4.43;4.03;;;;;;;18.25;45.85;95184.56;5035989;28;20194;-68
2022/04/30 11:07:31;;;;;;;4.35;3.85;;;;;;;18.61;44.87;95168.56;5035563;28;20594;-68
2022/04/30 11:09:58;;;;;;;4.47;4.07;;;;;;;18.99;45.21;95166.06;5018622;28;20201;-68
2022/04/30 11:12:31;;;;;;;5.03;3.70;;;;;;;18.88;42.85;95179.28;5018032;28;20269;-69
2022/04/30 11:15:00;;;;;;;4.43;4.07;;;;;;;18.44;42.50;95169.38;5035785;28;20230;-71
2022/04/30 11:17:28;;;;;;;4.13;3.80;;;;;;;17.60;43.25;95182.91;5035511;28;20289;-69
2022/04/30 11:19:56;;;;;;;4.45;4.03;;;;;;;17.35;44.93;95182.84;5018254;28;20190;-69
2022/04/30 11:22:25;;;;;;;4.05;3.75;;;;;;;17.28;45.06;95173.28;5034137;28;20194;-69
2022/04/30 11:24:58;;;;;;;4.70;4.30;;;;;;;17.35;44.42;95172.47;5035523;28;20198;-70
2022/04/30 11:27:31;;;;;;;5.18;4.70;;;;;;;17.42;44.16;95174.50;5017927;28;20288;-70
2022/04/30 11:29:59;;;;;;;5.57;3.65;;;;;;;17.32;44.21;95170.50;5017916;28;20209;-69
2022/04/30 11:32:28;;;;;;;3.60;3.17;;;;;;;17.29;44.37;95166.50;5034089;28;20222;-70
2022/04/30 11:35:00;;;;;;;4.13;3.58;;;;;;;17.61;46.86;95171.38;5034652;28;20214;-69
2022/04/30 11:37:38;;;;;;;4.40;4.00;;;;;;;17.88;44.82;95165.44;5018595;28;20206;-70
2022/04/30 11:40:08;;;;;;;3.95;3.40;;;;;;;17.74;44.52;95161.41;5035594;28;20205;-70
2022/04/30 11:42:36;;;;;;;4.60;3.53;;;;;;;17.86;45.85;95167.81;5036068;28;20202;-71
2022/04/30 11:45:07;;;;;;;4.47;4.03;;;;;;;17.99;45.95;95163.44;5017998;28;20530;-70
2022/04/30 11:47:35;;;;;;;4.85;3.83;;;;;;;18.08;46.14;95160.25;5035700;28;20190;-70
2022/04/30 11:50:10;;;;;;;4.68;4.00;;;;;;;18.01;45.57;95159.06;5018348;28;20210;-70
2022/04/30 11:52:40;;;;;;;5.10;3.90;;;;;;;18.05;45.45;95156.28;5035601;28;20206;-70
2022/04/30 11:55:11;;;;;;;4.22;3.83;;;;;;;18.02;46.48;95160.66;5018634;28;20217;-70
2022/04/30 11:57:45;;;;;;;4.18;3.88;;;;;;;18.29;44.74;95151.84;5036120;28;20183;-70
2022/04/30 12:00:15;;;;;;;4.22;3.83;;;;;;;18.49;43.93;95155.03;5035891;28;20205;-70
2022/04/30 12:02:47;;;;;;;6.03;4.82;;;;;;;18.53;46.03;95142.66;5035410;28;20289;-70
2022/04/30 12:05:14;;;;;;;11.40;9.88;;;;;;;18.83;46.16;95144.19;5019232;28;20293;-70
2022/04/30 12:07:47;;;;;;;7.65;6.53;;;;;;;18.90;44.79;95141.38;5035312;28;20207;-70
2022/04/30 12:10:17;;;;;;;4.43;3.88;;;;;;;18.87;44.39;95135.78;5034645;28;20264;-69